Messwerte Vancouver

Temperatur

Temperatur
°C
1638032400 9.00 9.00
1638036000 10.00 10.00 11
1638039600 11.00 11.00 11
1638043200 12.00 12.00 11
1638046800 13.00 13.00 11
1638050400 14.00 14.00 12
1638054000 15.00 15.00
1638057600 16.00 16.00 12
1638061200 17.00 17.00 16
1638064800 18.00 18.00
1638068400 19.00 19.00 16
1638072000 20.00 20.00 16
1638075600 21.00 21.00 17
1638079200 22.00 22.00 17
1638082800 23.00 23.00 17
1638086400 0.00 0.00 16
1638090000 1.00 1.00 16
1638093600 2.00 2.00 16
1638097200 3.00 3.00 16
1638100800 4.00 4.00 15
1638104400 5.00 5.00 15
1638108000 6.00 6.00 14
1638111600 7.00 7.00 14
1638115200 8.00 8.00 11

Aktuellste Messwerte

Wettercharakter
Wetter: sonnig
Temperatur
13 °C
Feuchtigkeit
94 %
Wind
5 km/hWindrichtung: Ost
Luftdruck
1022 hPa
Messzeit: 28. November 2021, 9.00Datenquelle: METAR

Weitere Messstationen in der Nähe

Messstation Temperatur Entfernung
Portland 14 °C 5 km
Beaverton 11.3 °C 20 km
Portland 15 °C 21 km
Scappoose 13 °C 23 km
Portland 12 °C 24 km
Aurora 13 °C 42 km
Kelso 14 °C 59 km

Wind

Windrichtung Böen Mittelwind
° km/h km/h
1638032400 9.00 8.00 - 9.00
1638036000 10.00 9.00 - 10.00 120° 15
1638039600 11.00 10.00 - 11.00 140° 15
1638043200 12.00 11.00 - 12.00 120° 10
1638046800 13.00 12.00 - 13.00 120° 10
1638050400 14.00 13.00 - 14.00 110° 15
1638054000 15.00 14.00 - 15.00
1638057600 16.00 15.00 - 16.00 110° 10
1638061200 17.00 16.00 - 17.00 150° 5
1638064800 18.00 17.00 - 18.00
1638068400 19.00 18.00 - 19.00 200° 10
1638072000 20.00 19.00 - 20.00 200° 5
1638075600 21.00 20.00 - 21.00 210° 10
1638079200 22.00 21.00 - 22.00 200° 10
1638082800 23.00 22.00 - 23.00 10
1638086400 0.00 23.00 - 0.00 180° 5
1638090000 1.00 0.00 - 1.00 170° 5
1638093600 2.00 1.00 - 2.00 200° 15
1638097200 3.00 2.00 - 3.00 210° 10
1638100800 4.00 3.00 - 4.00 190° 5
1638104400 5.00 4.00 - 5.00 230° 5
1638108000 6.00 5.00 - 6.00 0
1638111600 7.00 6.00 - 7.00 0
1638115200 8.00 7.00 - 8.00 0

Ihre Wetterstation

Fehlt Ihre Wetterstation auf unserem Portal?

Schreiben Sie an network@meteonews.ch

Klima

Wann ist es am wärmsten? Wann regnet es am wenigsten? Unsere Klimadaten geben Auskunft.